Time;durP1;ratioP1;P1;durP2;ratioP2;P2;SDS_P1;SDS_P2;PMS_P1;PMS_P2;Temp;Humidity;BMP_temperature;BMP_pressure;BME280_temperature;BME280_humidity;BME280_pressure;Samples;Min_cycle;Max_cycle;Signal;HPM_P1;HPM_P2
2024/01/07 00:00:26;;;;;;;18.03;11.07;;;5.10;99.90;;;;;;7293811;19;20948;-82
2024/01/07 00:02:52;;;;;;;21.70;11.60;;;5.20;99.90;;;;;;7293540;19;20198;-83
2024/01/07 00:05:18;;;;;;;18.03;11.27;;;5.40;99.90;;;;;;7289779;19;20184;-92
2024/01/07 00:07:44;;;;;;;21.23;12.00;;;5.30;99.90;;;;;;7292818;19;20187;-81
2024/01/07 00:10:10;;;;;;;18.20;11.43;;;5.30;99.90;;;;;;7293722;19;20187;-84
2024/01/07 00:12:37;;;;;;;18.83;11.40;;;5.40;99.90;;;;;;7293606;19;20280;-92
2024/01/07 00:15:06;;;;;;;20.40;11.70;;;5.30;99.90;;;;;;7312922;19;20198;-91
2024/01/07 00:17:32;;;;;;;20.27;11.90;;;5.30;99.90;;;;;;7291060;19;20192;-89
2024/01/07 00:19:59;;;;;;;19.40;11.03;;;5.00;99.90;;;;;;7289566;19;20182;-81
2024/01/07 00:22:25;;;;;;;21.33;11.67;;;5.10;99.90;;;;;;7288739;19;20562;-92
2024/01/07 00:24:50;;;;;;;20.73;12.07;;;5.10;99.90;;;;;;7290551;19;20190;-81
2024/01/07 00:27:17;;;;;;;18.70;11.60;;;5.20;99.90;;;;;;7289229;19;20203;-82
2024/01/07 00:29:42;;;;;;;19.90;12.20;;;5.20;99.90;;;;;;7286406;19;20193;-81
2024/01/07 00:32:14;;;;;;;19.90;12.30;;;5.30;99.90;;;;;;7285098;19;20220;-91
2024/01/07 00:34:42;;;;;;;21.97;12.63;;;5.40;99.90;;;;;;7280926;19;20306;-82
2024/01/07 00:37:10;;;;;;;21.17;12.67;;;5.50;99.90;;;;;;7288490;19;20923;-82
2024/01/07 00:39:43;;;;;;;21.63;11.97;;;5.50;99.90;;;;;;7294341;19;20192;-92
2024/01/07 00:42:10;;;;;;;19.43;11.57;;;5.60;99.90;;;;;;7296888;19;20198;-81
2024/01/07 00:44:38;;;;;;;20.57;12.70;;;5.40;99.90;;;;;;7305661;19;20189;-82
2024/01/07 00:47:05;;;;;;;19.87;12.03;;;5.30;99.90;;;;;;7314881;19;20192;-82
2024/01/07 00:49:31;;;;;;;22.20;12.80;;;5.40;99.90;;;;;;7297754;19;20194;-91
2024/01/07 00:51:57;;;;;;;24.03;13.30;;;5.50;99.90;;;;;;7298658;19;20195;-82
2024/01/07 00:54:23;;;;;;;24.07;13.23;;;5.60;99.90;;;;;;7297301;19;20194;-92
2024/01/07 00:56:49;;;;;;;20.07;12.10;;;5.50;99.90;;;;;;7295163;19;20191;-81
2024/01/07 00:59:16;;;;;;;23.30;12.23;;;5.30;99.90;;;;;;7292398;19;20250;-92
2024/01/07 01:01:42;;;;;;;20.13;12.10;;;5.40;99.90;;;;;;7294482;19;20552;-82
2024/01/07 01:04:08;;;;;;;20.60;12.33;;;5.50;99.90;;;;;;7296059;19;20199;-92
2024/01/07 01:06:35;;;;;;;21.00;12.43;;;5.30;99.90;;;;;;7306630;19;20214;-82
2024/01/07 01:09:01;;;;;;;21.47;12.67;;;5.40;99.90;;;;;;7317154;19;20196;-91
2024/01/07 01:11:30;;;;;;;21.03;12.97;;;5.40;99.90;;;;;;7299159;19;20297;-93
2024/01/07 01:13:56;;;;;;;20.13;12.40;;;5.60;99.90;;;;;;7293659;19;20191;-81
2024/01/07 01:16:24;;;;;;;20.73;12.80;;;5.60;99.90;;;;;;7293794;19;20625;-83
2024/01/07 01:18:50;;;;;;;20.40;12.13;;;5.60;99.90;;;;;;7292864;19;20280;-81
2024/01/07 01:21:16;;;;;;;23.83;12.70;;;5.70;99.90;;;;;;7288366;19;20233;-81
2024/01/07 01:23:42;;;;;;;21.07;12.70;;;5.70;99.90;;;;;;7287147;19;20197;-81
2024/01/07 01:26:09;;;;;;;21.27;12.80;;;5.70;99.90;;;;;;7298551;19;20599;-91
2024/01/07 01:28:35;;;;;;;25.73;12.67;;;5.70;99.90;;;;;;7313250;19;20197;-81
2024/01/07 01:31:02;;;;;;;23.63;13.40;;;5.70;99.90;;;;;;7296333;19;20195;-92
2024/01/07 01:33:31;;;;;;;23.23;12.93;;;5.60;99.90;;;;;;7284194;19;20189;-89
2024/01/07 01:36:04;;;;;;;23.37;13.37;;;5.60;99.90;;;;;;7301541;19;20201;-91
2024/01/07 01:38:33;;;;;;;22.47;13.13;;;5.60;99.90;;;;;;7310342;19;20197;-91
2024/01/07 01:40:58;;;;;;;21.93;12.80;;;5.50;99.90;;;;;;7300000;19;20192;-81
2024/01/07 01:43:26;;;;;;;21.93;12.73;;;5.50;99.90;;;;;;7291872;19;20194;-92
2024/01/07 01:45:56;;;;;;;22.60;12.80;;;5.40;99.90;;;;;;7301892;19;20186;-92
2024/01/07 01:48:24;;;;;;;21.20;12.73;;;5.30;99.90;;;;;;7291521;19;20221;-82
2024/01/07 01:50:53;;;;;;;22.63;13.00;;;5.20;99.90;;;;;;7302900;19;20197;-81
2024/01/07 01:53:20;;;;;;;19.90;11.90;;;5.00;99.90;;;;;;7295639;19;20188;-90
2024/01/07 01:55:46;;;;;;;22.30;12.90;;;4.80;99.90;;;;;;7296368;19;20194;-81
2024/01/07 01:58:13;;;;;;;22.93;12.63;;;4.90;99.90;;;;;;7283565;19;20235;-92
2024/01/07 02:00:41;;;;;;;20.47;12.83;;;4.80;99.90;;;;;;7285362;19;20200;-90
2024/01/07 02:03:07;;;;;;;23.17;13.17;;;4.90;99.90;;;;;;7289855;19;20220;-81
2024/01/07 02:05:36;;;;;;;24.13;14.13;;;4.80;99.90;;;;;;7314430;19;20206;-90
2024/01/07 02:08:02;;;;;;;21.43;12.50;;;4.80;99.90;;;;;;7295428;19;20228;-92
2024/01/07 02:10:34;;;;;;;23.60;14.20;;;4.60;99.90;;;;;;7294759;19;20231;-93
2024/01/07 02:13:00;;;;;;;22.73;13.87;;;4.50;99.90;;;;;;7287395;19;20185;-81
2024/01/07 02:15:26;;;;;;;21.97;13.83;;;4.70;99.90;;;;;;7288891;19;20179;-81
2024/01/07 02:17:52;;;;;;;21.43;13.23;;;4.50;99.90;;;;;;7284888;19;20563;-81
2024/01/07 02:20:18;;;;;;;23.03;13.67;;;4.50;99.90;;;;;;7281737;19;20577;-81
2024/01/07 02:22:47;;;;;;;23.30;14.60;;;4.60;99.90;;;;;;7295911;19;20205;-92
2024/01/07 02:25:16;;;;;;;22.53;13.23;;;4.50;99.90;;;;;;7301771;19;20194;-91
2024/01/07 02:27:42;;;;;;;24.43;14.07;;;4.50;99.90;;;;;;7297046;19;20196;-90
2024/01/07 02:30:10;;;;;;;25.07;13.43;;;4.50;99.90;;;;;;7305033;19;20198;-89
2024/01/07 02:32:39;;;;;;;22.17;14.27;;;4.50;99.90;;;;;;7329460;19;20216;-82
2024/01/07 02:35:06;;;;;;;26.47;15.60;;;4.50;99.90;;;;;;7291629;19;20195;-81
2024/01/07 02:37:32;;;;;;;25.43;15.17;;;4.60;99.90;;;;;;7293049;19;20188;-82
2024/01/07 02:40:01;;;;;;;25.50;16.00;;;4.60;99.90;;;;;;7295112;19;20199;-92
2024/01/07 02:42:26;;;;;;;27.07;16.00;;;4.50;99.90;;;;;;7288603;19;20234;-81
2024/01/07 02:44:52;;;;;;;26.43;16.20;;;4.20;99.90;;;;;;7288741;19;20215;-81
2024/01/07 02:47:18;;;;;;;29.57;16.57;;;4.20;99.90;;;;;;7289681;19;20558;-92
2024/01/07 02:49:45;;;;;;;26.63;15.43;;;4.30;99.90;;;;;;7285781;19;20178;-82
2024/01/07 02:52:11;;;;;;;25.23;15.67;;;4.30;99.90;;;;;;7291425;19;20190;-81
2024/01/07 02:54:37;;;;;;;21.80;11.20;;;4.20;99.90;;;;;;7289943;19;20575;-81
2024/01/07 02:57:03;;;;;;;22.07;13.17;;;4.20;99.90;;;;;;7306546;19;20553;-81
2024/01/07 02:59:29;;;;;;;17.17;9.77;;;4.10;99.90;;;;;;7285073;19;20201;-81
2024/01/07 03:01:54;;;;;;;21.33;12.57;;;4.10;99.90;;;;;;7290616;19;20182;-91
2024/01/07 03:04:23;;;;;;;21.10;12.17;;;4.00;99.90;;;;;;7289369;19;20193;-90
2024/01/07 03:06:49;;;;;;;21.63;12.80;;;3.90;99.90;;;;;;7288987;19;20197;-91
2024/01/07 03:09:15;;;;;;;21.17;12.33;;;3.90;99.90;;;;;;7287219;19;20747;-91
2024/01/07 03:11:41;;;;;;;22.13;11.73;;;3.90;99.90;;;;;;7285891;19;20188;-81
2024/01/07 03:14:08;;;;;;;21.30;11.67;;;3.90;99.90;;;;;;7285954;19;20648;-81
2024/01/07 03:16:34;;;;;;;20.57;11.83;;;3.80;99.90;;;;;;7311431;19;20182;-81
2024/01/07 03:18:59;;;;;;;23.10;12.43;;;3.80;99.90;;;;;;7285948;19;20225;-81
2024/01/07 03:21:25;;;;;;;21.00;12.70;;;3.70;99.90;;;;;;7290564;19;20186;-81
2024/01/07 03:23:53;;;;;;;23.47;13.60;;;3.80;99.90;;;;;;7292162;19;20205;-81
2024/01/07 03:26:20;;;;;;;23.50;13.70;;;3.90;99.90;;;;;;7295237;19;20197;-91
2024/01/07 03:28:47;;;;;;;23.53;13.13;;;4.00;99.90;;;;;;7283488;19;20210;-81
2024/01/07 03:31:15;;;;;;;22.57;13.43;;;3.90;99.90;;;;;;7286719;19;20550;-91
2024/01/07 03:33:42;;;;;;;24.47;14.03;;;3.80;99.90;;;;;;7274287;19;20193;-91
2024/01/07 03:36:12;;;;;;;26.77;15.00;;;3.90;99.90;;;;;;7285390;19;20206;-90
2024/01/07 03:38:41;;;;;;;25.37;14.20;;;3.80;99.90;;;;;;7285866;19;20189;-81
2024/01/07 03:41:08;;;;;;;23.40;13.67;;;3.80;99.90;;;;;;7283876;19;20197;-91
2024/01/07 03:43:34;;;;;;;27.43;14.90;;;3.80;99.90;;;;;;7307698;19;20225;-91
2024/01/07 03:46:00;;;;;;;25.63;15.83;;;3.70;99.90;;;;;;7286845;19;20189;-82
2024/01/07 03:48:26;;;;;;;25.50;14.40;;;3.80;99.90;;;;;;7284855;19;20201;-82
2024/01/07 03:50:52;;;;;;;26.70;15.80;;;3.80;99.90;;;;;;7290078;19;20185;-91
2024/01/07 03:53:18;;;;;;;28.07;16.40;;;3.80;99.90;;;;;;7285807;19;20201;-81
2024/01/07 03:55:44;;;;;;;25.80;15.43;;;4.00;99.90;;;;;;7287361;19;20194;-81
2024/01/07 03:58:10;;;;;;;29.57;16.43;;;4.00;99.90;;;;;;7296994;19;20189;-89
2024/01/07 04:00:37;;;;;;;30.63;17.10;;;4.00;99.90;;;;;;7296502;19;20189;-90
2024/01/07 04:03:03;;;;;;;28.13;17.27;;;3.90;99.90;;;;;;7312170;19;20239;-91
2024/01/07 04:05:29;;;;;;;28.47;16.07;;;4.10;99.90;;;;;;7294907;19;20185;-92
2024/01/07 04:07:56;;;;;;;29.83;17.00;;;4.20;99.90;;;;;;7286070;19;20183;-80
2024/01/07 04:10:22;;;;;;;30.77;18.17;;;4.10;99.90;;;;;;7293378;19;20214;-82
2024/01/07 04:12:48;;;;;;;30.37;17.63;;;4.00;99.90;;;;;;7290801;19;20193;-91
2024/01/07 04:15:14;;;;;;;32.60;17.97;;;3.90;99.90;;;;;;7282765;19;20313;-92
2024/01/07 04:17:40;;;;;;;31.50;18.57;;;3.90;99.90;;;;;;7294377;19;20184;-84
2024/01/07 04:20:07;;;;;;;33.03;18.80;;;3.90;99.90;;;;;;7302603;19;20256;-81
2024/01/07 04:22:33;;;;;;;32.83;19.03;;;4.00;99.90;;;;;;7310232;19;20175;-91
2024/01/07 04:24:59;;;;;;;32.83;18.30;;;3.90;99.90;;;;;;7291460;19;20243;-91
2024/01/07 04:27:25;;;;;;;36.97;20.77;;;4.00;99.90;;;;;;7293704;19;25426;-81
2024/01/07 04:29:51;;;;;;;33.40;19.23;;;3.80;99.90;;;;;;7293678;19;20197;-82
2024/01/07 04:32:19;;;;;;;34.47;19.27;;;3.70;99.90;;;;;;7292965;19;20203;-91
2024/01/07 04:34:46;;;;;;;33.07;19.33;;;3.80;99.90;;;;;;7290392;19;20186;-91
2024/01/07 04:37:27;;;;;;;36.33;20.63;;;3.80;99.90;;;;;;7294261;19;20594;-82
2024/01/07 04:39:53;;;;;;;36.80;20.63;;;3.70;99.90;;;;;;7289619;19;20227;-81
2024/01/07 04:42:19;;;;;;;35.60;20.77;;;3.80;99.90;;;;;;7288594;19;20194;-90
2024/01/07 04:44:45;;;;;;;37.03;21.50;;;3.80;99.90;;;;;;7280777;19;20234;-90
2024/01/07 04:47:31;;;;;;;37.27;20.40;;;3.80;99.90;;;;;;7282936;19;20184;-90
2024/01/07 04:50:00;;;;;;;35.97;20.50;;;3.80;99.90;;;;;;7278739;19;20530;-82
2024/01/07 04:52:26;;;;;;;36.73;19.17;;;3.70;99.90;;;;;;7285030;19;20207;-92
2024/01/07 04:54:55;;;;;;;38.70;21.53;;;3.70;99.90;;;;;;7294888;19;20181;-90
2024/01/07 04:57:21;;;;;;;38.67;21.50;;;3.70;99.90;;;;;;7289703;19;20192;-91
2024/01/07 04:59:48;;;;;;;41.17;24.00;;;3.70;99.90;;;;;;7286105;19;20189;-91
2024/01/07 05:02:15;;;;;;;45.43;23.47;;;3.70;99.90;;;;;;7286581;19;20194;-91
2024/01/07 05:04:42;;;;;;;45.63;24.83;;;3.60;99.90;;;;;;7288760;19;20273;-86
2024/01/07 05:07:08;;;;;;;45.33;24.53;;;3.60;99.90;;;;;;7289908;19;20228;-90
2024/01/07 05:09:34;;;;;;;44.27;23.37;;;3.50;99.90;;;;;;7311502;19;20582;-82
2024/01/07 05:12:00;;;;;;;48.97;24.03;;;3.50;99.90;;;;;;7288629;19;20215;-81
2024/01/07 05:14:28;;;;;;;48.53;24.57;;;3.50;99.90;;;;;;7287148;19;26081;-90
2024/01/07 05:16:55;;;;;;;50.57;25.50;;;3.40;99.90;;;;;;7292031;19;20190;-92
2024/01/07 05:19:27;;;;;;;48.47;25.53;;;3.50;99.90;;;;;;7286419;19;20189;-82
2024/01/07 05:21:53;;;;;;;50.97;26.03;;;3.60;99.90;;;;;;7287684;19;20193;-82
2024/01/07 05:24:19;;;;;;;52.40;26.87;;;3.60;99.90;;;;;;7286316;19;20191;-92
2024/01/07 05:26:50;;;;;;;53.63;27.67;;;3.50;99.90;;;;;;7281302;19;20184;-81
2024/01/07 05:29:16;;;;;;;52.30;26.40;;;3.60;99.90;;;;;;7285875;19;20815;-89
2024/01/07 05:31:47;;;;;;;50.67;26.83;;;3.50;99.90;;;;;;7287232;19;20306;-82
2024/01/07 05:34:13;;;;;;;54.17;26.60;;;3.50;99.90;;;;;;7285978;19;20244;-91
2024/01/07 05:36:45;;;;;;;52.03;26.80;;;3.50;99.90;;;;;;7293209;19;20232;-82
2024/01/07 05:39:11;;;;;;;52.00;26.60;;;3.60;99.90;;;;;;7297427;19;20191;-82
2024/01/07 05:41:39;;;;;;;50.43;25.23;;;3.60;99.90;;;;;;7313423;19;20203;-86
2024/01/07 05:44:08;;;;;;;53.50;27.70;;;3.50;99.90;;;;;;7326104;19;20188;-91
2024/01/07 05:46:34;;;;;;;54.40;27.40;;;3.50;99.90;;;;;;7304698;19;20185;-82
2024/01/07 05:49:02;;;;;;;52.97;27.60;;;3.50;99.90;;;;;;7297222;19;20213;-92
2024/01/07 05:51:28;;;;;;;54.30;28.23;;;3.30;99.90;;;;;;7293467;19;20251;-94
2024/01/07 05:54:00;;;;;;;52.47;27.13;;;3.30;99.90;;;;;;7298429;19;20192;-83
2024/01/07 05:56:28;;;;;;;55.83;29.43;;;3.30;99.90;;;;;;7293769;19;20200;-83
2024/01/07 05:58:55;;;;;;;55.73;27.50;;;3.40;99.90;;;;;;7292051;19;20193;-84
2024/01/07 06:01:21;;;;;;;53.27;28.10;;;3.40;99.90;;;;;;7294118;19;20195;-81
2024/01/07 06:03:52;;;;;;;53.23;26.63;;;3.40;99.90;;;;;;7294412;19;20200;-81
2024/01/07 06:06:18;;;;;;;52.27;25.73;;;3.60;99.90;;;;;;7296004;19;20208;-82
2024/01/07 06:08:45;;;;;;;53.90;27.63;;;3.60;99.90;;;;;;7295452;19;20359;-81
2024/01/07 06:11:12;;;;;;;50.27;27.47;;;3.70;99.90;;;;;;7292699;19;20721;-92
2024/01/07 06:13:38;;;;;;;53.83;28.00;;;3.50;99.90;;;;;;7303458;19;20189;-86
2024/01/07 06:16:07;;;;;;;55.07;27.77;;;3.50;99.90;;;;;;7316746;19;20223;-82
2024/01/07 06:18:32;;;;;;;53.93;26.63;;;3.50;99.90;;;;;;7296367;19;20697;-82
2024/01/07 06:20:58;;;;;;;47.00;25.00;;;3.50;99.90;;;;;;7296534;19;20325;-92
2024/01/07 06:23:24;;;;;;;48.80;25.83;;;3.40;99.90;;;;;;7301409;19;20184;-82
2024/01/07 06:25:50;;;;;;;54.70;27.37;;;3.40;99.90;;;;;;7295188;19;20198;-81
2024/01/07 06:28:16;;;;;;;52.60;26.23;;;3.50;99.90;;;;;;7294979;19;20199;-90
2024/01/07 06:30:42;;;;;;;49.20;24.27;;;3.30;99.90;;;;;;7297760;19;20205;-85
2024/01/07 06:33:08;;;;;;;55.47;25.60;;;3.30;99.90;;;;;;7298740;19;20181;-91
2024/01/07 06:35:34;;;;;;;53.20;26.60;;;3.40;99.90;;;;;;7318662;19;20208;-83
2024/01/07 06:38:02;;;;;;;54.83;27.90;;;3.50;99.90;;;;;;7295481;19;20185;-82
2024/01/07 06:40:28;;;;;;;53.97;25.37;;;3.40;99.90;;;;;;7295952;19;20200;-82
2024/01/07 06:42:54;;;;;;;53.50;27.80;;;3.40;99.90;;;;;;7288310;19;20189;-92
2024/01/07 06:45:26;;;;;;;53.63;27.17;;;3.40;99.90;;;;;;7294261;19;20246;-83
2024/01/07 06:47:54;;;;;;;54.67;28.10;;;3.40;99.90;;;;;;7296139;19;20204;-93
2024/01/07 06:50:21;;;;;;;51.43;26.23;;;3.60;99.90;;;;;;7294730;19;20259;-91
2024/01/07 06:52:47;;;;;;;53.87;25.87;;;3.70;99.90;;;;;;7293910;19;20226;-82
2024/01/07 06:55:13;;;;;;;55.00;26.47;;;3.60;99.90;;;;;;7285584;19;20197;-83
2024/01/07 06:57:40;;;;;;;56.20;27.37;;;3.30;99.90;;;;;;7285103;19;20203;-92
2024/01/07 07:00:07;;;;;;;58.30;28.87;;;3.30;99.90;;;;;;7310961;19;20185;-83
2024/01/07 07:02:33;;;;;;;60.27;28.67;;;3.30;99.90;;;;;;7288950;19;20289;-86
2024/01/07 07:04:59;;;;;;;51.83;24.80;;;3.50;99.90;;;;;;7284141;19;20191;-83
2024/01/07 07:07:25;;;;;;;59.70;29.07;;;3.60;99.90;;;;;;7283705;19;20256;-83
2024/01/07 07:09:51;;;;;;;60.20;28.87;;;3.50;99.90;;;;;;7284638;19;20205;-83
2024/01/07 07:12:18;;;;;;;59.37;29.30;;;3.40;99.90;;;;;;7281038;19;20198;-84
2024/01/07 07:14:44;;;;;;;58.80;28.57;;;3.40;99.90;;;;;;7279239;19;20260;-84
2024/01/07 07:17:09;;;;;;;56.40;27.20;;;3.40;99.90;;;;;;7290808;19;20198;-93
2024/01/07 07:19:35;;;;;;;59.47;27.77;;;3.50;99.90;;;;;;7306364;19;20196;-92
2024/01/07 07:22:01;;;;;;;58.53;29.83;;;3.50;99.90;;;;;;7287191;19;20209;-92
2024/01/07 07:24:27;;;;;;;61.80;26.30;;;3.60;99.90;;;;;;7284569;19;20201;-92
2024/01/07 07:26:54;;;;;;;56.63;26.80;;;3.50;99.90;;;;;;7283412;19;20189;-93
2024/01/07 07:29:19;;;;;;;60.67;28.77;;;3.30;99.90;;;;;;7285935;19;20763;-90
2024/01/07 07:31:45;;;;;;;57.70;27.60;;;3.20;99.90;;;;;;7284325;19;20215;-94
2024/01/07 07:34:12;;;;;;;61.40;29.30;;;3.30;99.90;;;;;;7283259;19;20188;-95
2024/01/07 07:36:39;;;;;;;57.87;28.50;;;3.40;99.90;;;;;;7290099;19;20225;-93
2024/01/07 07:39:05;;;;;;;60.80;27.60;;;3.50;99.90;;;;;;7307067;19;20811;-95
2024/01/07 07:41:37;;;;;;;62.43;29.13;;;3.60;99.90;;;;;;7284445;19;20227;-94
2024/01/07 07:44:06;;;;;;;60.60;27.80;;;3.80;99.90;;;;;;7285521;19;20189;-93
2024/01/07 07:46:33;;;;;;;63.03;25.90;;;3.70;99.90;;;;;;7287438;19;20194;-94
2024/01/07 07:49:00;;;;;;;57.47;26.67;;;3.60;99.90;;;;;;7285635;19;20253;-84
2024/01/07 07:51:27;;;;;;;56.63;25.50;;;3.50;99.90;;;;;;7283500;19;20580;-84
2024/01/07 07:53:56;;;;;;;57.80;26.77;;;3.40;99.90;;;;;;7285042;19;20201;-82
2024/01/07 07:56:21;;;;;;;62.43;26.73;;;3.30;99.90;;;;;;7280990;19;20775;-84
2024/01/07 07:59:02;;;;;;;56.90;26.27;;;3.30;99.90;;;;;;7277282;19;20583;-84
2024/01/07 08:01:29;;;;;;;56.93;25.87;;;3.50;99.90;;;;;;7295511;19;20189;-92
2024/01/07 08:03:55;;;;;;;60.77;27.13;;;3.40;99.90;;;;;;7290816;19;20646;-83
2024/01/07 08:06:21;;;;;;;63.83;28.33;;;3.40;99.90;;;;;;7279245;19;20197;-83
2024/01/07 08:08:47;;;;;;;60.37;26.50;;;3.40;99.90;;;;;;7279167;19;20234;-82
2024/01/07 08:11:13;;;;;;;63.53;27.87;;;3.50;99.90;;;;;;7278628;19;20193;-82
2024/01/07 08:13:39;;;;;;;58.93;26.60;;;3.60;99.90;;;;;;7286054;19;20245;-93
2024/01/07 08:16:05;;;;;;;54.43;23.70;;;3.50;99.90;;;;;;7315237;19;20199;-83
2024/01/07 08:18:31;;;;;;;64.87;27.20;;;3.50;99.90;;;;;;7283358;19;20185;-83
2024/01/07 08:20:58;;;;;;;65.63;28.97;;;3.40;99.90;;;;;;7283164;19;20666;-83
2024/01/07 08:23:27;;;;;;;67.93;28.83;;;3.30;99.90;;;;;;7283702;19;20209;-83
2024/01/07 08:25:53;;;;;;;66.80;28.67;;;3.40;99.90;;;;;;7279920;19;20214;-82
2024/01/07 08:28:20;;;;;;;64.30;27.73;;;3.50;99.90;;;;;;7279540;19;20193;-82
2024/01/07 08:30:48;;;;;;;66.63;28.20;;;3.50;99.90;;;;;;7281743;19;20212;-82
2024/01/07 08:33:14;;;;;;;60.37;28.97;;;3.30;99.90;;;;;;7282797;19;20181;-83
2024/01/07 08:35:43;;;;;;;58.43;23.53;;;3.30;99.90;;;;;;7287599;19;20209;-84
2024/01/07 08:38:11;;;;;;;58.87;26.80;;;3.40;99.90;;;;;;7289852;19;20185;-83
2024/01/07 08:40:37;;;;;;;62.23;27.93;;;3.50;99.90;;;;;;7298851;19;20242;-84
2024/01/07 08:43:03;;;;;;;60.87;26.83;;;3.50;99.90;;;;;;7306175;19;20777;-86
2024/01/07 08:45:29;;;;;;;67.77;29.83;;;3.60;99.90;;;;;;7285614;19;20741;-84
2024/01/07 08:47:55;;;;;;;69.07;31.00;;;3.60;99.90;;;;;;7282986;19;20329;-83
2024/01/07 08:50:20;;;;;;;72.67;30.17;;;3.70;99.90;;;;;;7280178;19;20218;-82
2024/01/07 08:52:47;;;;;;;75.17;34.03;;;3.70;99.90;;;;;;7277859;19;20280;-83
2024/01/07 08:55:13;;;;;;;68.60;30.00;;;3.70;99.90;;;;;;7279539;19;20192;-82
2024/01/07 08:57:41;;;;;;;65.20;29.27;;;3.50;99.90;;;;;;7288240;19;20199;-85
2024/01/07 09:00:07;;;;;;;61.90;29.83;;;3.30;99.90;;;;;;7300114;19;20189;-82
2024/01/07 09:02:33;;;;;;;56.83;25.67;;;3.40;99.90;;;;;;7279400;19;20593;-80
2024/01/07 09:04:59;;;;;;;57.37;25.57;;;3.60;99.90;;;;;;7279543;19;20289;-79
2024/01/07 09:07:25;;;;;;;52.87;24.53;;;3.60;99.90;;;;;;7274835;19;20191;-79
2024/01/07 09:09:51;;;;;;;49.47;23.00;;;3.60;99.90;;;;;;7278412;19;20189;-78
2024/01/07 09:12:17;;;;;;;49.70;23.73;;;3.60;99.90;;;;;;7282332;19;20177;-80
2024/01/07 09:14:43;;;;;;;47.03;21.53;;;3.60;99.90;;;;;;7286534;19;20208;-81
2024/01/07 09:17:09;;;;;;;45.10;22.00;;;3.50;99.90;;;;;;7294547;19;20726;-79
2024/01/07 09:19:37;;;;;;;46.90;22.77;;;3.30;99.90;;;;;;7305209;19;20193;-79
2024/01/07 09:22:03;;;;;;;43.27;19.90;;;3.30;99.90;;;;;;7287651;19;20255;-80
2024/01/07 09:24:30;;;;;;;42.40;22.07;;;3.20;99.90;;;;;;7283336;19;20258;-93
2024/01/07 09:26:57;;;;;;;41.60;20.53;;;3.10;99.90;;;;;;7290303;19;20194;-91
2024/01/07 09:29:22;;;;;;;41.97;21.10;;;3.20;99.90;;;;;;7287901;19;20197;-90
2024/01/07 09:31:48;;;;;;;43.33;20.07;;;3.20;99.90;;;;;;7288795;19;20190;-80
2024/01/07 09:34:14;;;;;;;39.13;20.00;;;3.30;99.90;;;;;;7287185;19;20232;-80
2024/01/07 09:36:44;;;;;;;42.63;21.40;;;3.20;99.90;;;;;;7287808;19;20206;-79
2024/01/07 09:39:11;;;;;;;41.90;21.93;;;3.20;99.90;;;;;;7291324;19;20189;-80
2024/01/07 09:41:37;;;;;;;51.77;23.87;;;3.20;99.90;;;;;;7310761;19;20206;-91
2024/01/07 09:44:04;;;;;;;45.63;23.73;;;3.20;99.90;;;;;;7291823;19;20200;-80
2024/01/07 09:46:32;;;;;;;48.23;24.03;;;3.40;99.90;;;;;;7291170;19;20189;-92
2024/01/07 09:48:58;;;;;;;47.80;24.37;;;3.50;99.90;;;;;;7294385;19;20674;-79
2024/01/07 09:51:23;;;;;;;46.43;23.80;;;3.40;99.90;;;;;;7270645;19;20194;-92
2024/01/07 09:53:58;;;;;;;49.47;24.97;;;3.30;99.90;;;;;;7295546;19;20184;-79
2024/01/07 09:56:28;;;;;;;48.53;23.77;;;3.30;99.90;;;;;;7294317;19;20221;-86
2024/01/07 09:58:55;;;;;;;45.10;23.70;;;3.20;99.90;;;;;;7292221;19;20189;-90
2024/01/07 10:01:20;;;;;;;45.53;23.63;;;3.20;99.90;;;;;;7290914;19;20211;-87
2024/01/07 10:03:46;;;;;;;42.03;23.40;;;3.10;99.90;;;;;;7287305;19;20719;-87
2024/01/07 10:06:13;;;;;;;39.20;19.87;;;2.90;99.90;;;;;;7285861;19;20177;-84
2024/01/07 10:08:39;;;;;;;38.63;20.43;;;2.90;99.90;;;;;;7300188;19;20189;-86
2024/01/07 10:11:05;;;;;;;42.13;22.57;;;2.80;99.90;;;;;;7305555;19;20177;-86
2024/01/07 10:13:32;;;;;;;44.07;20.63;;;2.90;99.90;;;;;;7286572;19;20750;-90
2024/01/07 10:15:57;;;;;;;42.83;22.43;;;2.80;99.90;;;;;;7286111;19;20238;-87
2024/01/07 10:18:24;;;;;;;45.37;22.67;;;2.80;99.90;;;;;;7286111;19;20209;-91
2024/01/07 10:20:50;;;;;;;41.37;23.70;;;2.90;99.90;;;;;;7283170;19;20192;-89
2024/01/07 10:23:22;;;;;;;47.20;24.60;;;3.10;99.90;;;;;;7284782;19;20182;-84
2024/01/07 10:25:48;;;;;;;45.70;24.20;;;3.20;99.90;;;;;;7283821;19;20211;-85
2024/01/07 10:28:16;;;;;;;41.83;23.27;;;3.30;99.90;;;;;;7282580;19;20724;-83
2024/01/07 10:30:49;;;;;;;46.30;25.47;;;3.40;99.90;;;;;;7282368;19;20198;-82
2024/01/07 10:33:18;;;;;;;40.53;21.07;;;3.40;99.90;;;;;;7282223;19;20185;-82
2024/01/07 10:35:51;;;;;;;41.07;23.20;;;3.40;99.90;;;;;;7282288;19;20317;-82
2024/01/07 10:38:17;;;;;;;43.47;22.87;;;3.40;99.90;;;;;;7282781;19;20543;-82
2024/01/07 10:40:45;;;;;;;43.83;23.13;;;3.40;99.90;;;;;;7282130;19;20202;-81
2024/01/07 10:43:13;;;;;;;42.87;24.67;;;3.40;99.90;;;;;;7282084;19;20257;-82
2024/01/07 10:45:38;;;;;;;46.33;25.53;;;3.40;99.90;;;;;;7298101;19;20617;-81
2024/01/07 10:48:08;;;;;;;46.73;25.20;;;3.30;99.90;;;;;;7296802;19;20261;-82
2024/01/07 10:50:34;;;;;;;47.87;25.27;;;3.30;99.90;;;;;;7288005;19;20180;-83
2024/01/07 10:53:05;;;;;;;55.43;28.47;;;3.30;99.90;;;;;;7285239;19;20203;-84
2024/01/07 10:55:37;;;;;;;50.63;27.47;;;3.30;99.90;;;;;;7282096;19;22593;-83
2024/01/07 10:58:04;;;;;;;48.67;26.63;;;3.30;99.90;;;;;;7282773;19;20251;-83
2024/01/07 11:00:31;;;;;;;47.77;26.60;;;3.50;99.90;;;;;;7282514;19;20190;-83
2024/01/07 11:03:11;;;;;;;47.03;25.80;;;3.50;99.90;;;;;;7282133;19;20677;-83
2024/01/07 11:05:45;;;;;;;42.40;22.33;;;3.50;99.90;;;;;;7282932;19;20277;-83
2024/01/07 11:08:37;;;;;;;44.80;24.20;;;3.30;99.90;;;;;;7261797;19;20691;-84
2024/01/07 11:11:07;;;;;;;41.83;24.53;;;3.40;99.90;;;;;;7281327;19;20194;-77
2024/01/07 11:13:37;;;;;;;44.13;25.13;;;3.40;99.90;;;;;;7280898;19;20652;-79
2024/01/07 11:16:10;;;;;;;44.83;24.73;;;3.30;99.90;;;;;;7280556;19;20193;-79
2024/01/07 11:18:50;;;;;;;47.00;25.13;;;3.10;99.90;;;;;;7281038;19;20190;-80
2024/01/07 11:21:26;;;;;;;45.77;24.60;;;3.10;99.90;;;;;;7177026;19;2004448;-79
2024/01/07 11:23:53;;;;;;;61.23;32.20;;;3.00;99.90;;;;;;7280729;19;20195;-79
2024/01/07 11:26:22;;;;;;;57.47;30.73;;;3.00;99.90;;;;;;7279092;19;20187;-80
2024/01/07 11:28:56;;;;;;;47.13;26.80;;;3.10;99.90;;;;;;7286684;19;20655;-79
2024/01/07 11:31:42;;;;;;;50.03;26.97;;;3.10;99.90;;;;;;7287789;19;20198;-79
2024/01/07 11:34:09;;;;;;;47.80;26.00;;;3.00;99.90;;;;;;7281125;19;20187;-80
2024/01/07 11:36:36;;;;;;;48.43;26.17;;;3.00;99.90;;;;;;7295779;19;20699;-80
2024/01/07 11:39:03;;;;;;;46.27;25.53;;;3.00;99.90;;;;;;7282427;19;20689;-79
2024/01/07 11:41:33;;;;;;;42.97;21.73;;;2.90;99.90;;;;;;7279992;19;20189;-80
2024/01/07 11:44:00;;;;;;;51.83;28.80;;;2.80;99.90;;;;;;7282386;19;20196;-80
2024/01/07 11:46:30;;;;;;;43.60;25.33;;;2.70;99.90;;;;;;7281809;19;20197;-80
2024/01/07 11:49:01;;;;;;;45.87;24.03;;;2.70;99.90;;;;;;7280416;19;20609;-79
2024/01/07 11:51:32;;;;;;;41.33;24.03;;;2.70;99.90;;;;;;7281319;19;20258;-79
2024/01/07 11:53:59;;;;;;;38.83;21.03;;;2.70;99.90;;;;;;7279691;19;20198;-79
2024/01/07 11:56:25;;;;;;;45.03;23.20;;;2.70;99.90;;;;;;7279424;19;20213;-79
2024/01/07 11:58:53;;;;;;;36.33;20.20;;;2.70;99.90;;;;;;7278774;19;20200;-79
2024/01/07 12:01:19;;;;;;;39.13;19.43;;;2.90;99.90;;;;;;7279434;19;20192;-79
2024/01/07 12:03:47;;;;;;;33.03;18.30;;;2.90;99.90;;;;;;7278083;19;20572;-79
2024/01/07 12:06:13;;;;;;;36.07;19.53;;;2.90;99.90;;;;;;7269865;19;20217;-83
2024/01/07 12:08:43;;;;;;;35.30;18.77;;;3.00;99.90;;;;;;7290326;19;20194;-82
2024/01/07 12:11:13;;;;;;;37.90;19.70;;;3.00;99.90;;;;;;7297236;19;20185;-82
2024/01/07 12:13:39;;;;;;;38.60;20.53;;;3.00;99.90;;;;;;7298395;19;20184;-81
2024/01/07 12:16:06;;;;;;;37.57;18.87;;;3.10;99.90;;;;;;7301704;19;20190;-83
2024/01/07 12:18:32;;;;;;;38.10;21.43;;;3.10;99.90;;;;;;7282011;19;20229;-82
2024/01/07 12:20:59;;;;;;;35.83;19.37;;;3.10;99.90;;;;;;7281666;19;20196;-82
2024/01/07 12:23:28;;;;;;;34.57;20.37;;;3.20;99.90;;;;;;7281112;19;20190;-79
2024/01/07 12:25:55;;;;;;;38.63;19.97;;;3.10;99.90;;;;;;7278922;19;20649;-77
2024/01/07 12:28:22;;;;;;;36.50;20.00;;;3.10;99.90;;;;;;7277338;19;20195;-78
2024/01/07 12:30:49;;;;;;;36.53;20.57;;;3.20;99.90;;;;;;7284083;19;20592;-79
2024/01/07 12:33:19;;;;;;;36.23;20.13;;;3.20;99.90;;;;;;7278877;19;20204;-79
2024/01/07 12:35:48;;;;;;;36.67;20.93;;;3.10;99.90;;;;;;7276954;19;20284;-80